Clorinda, Argentina
Current Conditions -  °F | °C
As of 7:00 PM on Monday 24 Nov 2014 (Local Time) from SGAS Reporting Station
Few Clouds Few Clouds  
Wind Chill: 88°   Ceiling: Unl
Heat Index: 96°   Visibility: 6mi
Dew Point: 73°   Wind: 5mph
Humidity: 62%   Direction: 50°NE
Pressure: 29.65"   Gusts: NA
Location:  25.29°S, 57.72°W
Report Text: SGAS 242200Z 05004KT 9999 FEW033 31/23 Q1004
Loading
Personal Weather Stations






























Interactive Weather Map New forecast layout! Learn more

10-Day Weather Forecast

Advertisements
Track Severe Weather on mobile